Barry University, Florida
Current Conditions -  °F | °C
As of 11:36 AM on Wednesday 22 Oct 2014 (Local Time) from KOPF Reporting Station
Overcast Overcast  
Wind Chill: 82°   Ceiling: 2400
Heat Index: 86°   Visibility: 10mi
Dew Point: 71°   Wind: 6mph
Humidity: 69%   Direction: 20°NNE
Pressure: 29.98"   Gusts: NA
Location:  25.8935°N, 80.1832°W
Report Text: KOPF 221536Z 02005KT 10SM BKN024 OVC110 28/22 A2998 RMK AO2 T02780217
Loading
Personal Weather Stations






























Interactive Weather Map
Tropical Storm Tracking
New forecast layout! Learn more

10-Day Weather Forecast

Advertisements
Track Severe Weather on mobile